createdAt,value
2019-06-20T00:00:12.793Z,6.78
2019-06-20T00:02:43.089Z,8.23
2019-06-20T00:05:13.742Z,7.50
2019-06-20T00:07:44.064Z,6.83
2019-06-20T00:10:14.522Z,6.10
2019-06-20T00:12:59.562Z,8.23
2019-06-20T00:15:17.629Z,5.20
2019-06-20T00:17:47.973Z,8.35
2019-06-20T00:20:18.283Z,5.75
2019-06-20T00:22:50.298Z,6.15
2019-06-20T00:25:20.653Z,8.50
2019-06-20T00:27:50.972Z,5.42
2019-06-20T00:30:21.321Z,7.58
2019-06-20T00:32:51.719Z,7.35
2019-06-20T00:35:22.495Z,6.00
2019-06-20T00:37:53.211Z,6.30
2019-06-20T00:40:23.538Z,5.67
2019-06-20T00:42:53.902Z,7.60
2019-06-20T00:45:24.621Z,6.87
2019-06-20T00:47:54.909Z,6.87
2019-06-20T00:50:25.232Z,6.60
2019-06-20T00:52:55.591Z,8.90
2019-06-20T00:55:27.359Z,8.75
2019-06-20T00:57:57.671Z,8.38
2019-06-20T01:00:28.034Z,6.95
2019-06-20T01:02:58.734Z,7.45
2019-06-20T01:05:29.056Z,5.85
2019-06-20T01:07:59.427Z,8.53
2019-06-20T01:10:29.765Z,7.55
2019-06-20T01:13:00.157Z,6.83
2019-06-20T01:15:30.550Z,6.78
2019-06-20T01:18:00.995Z,6.67
2019-06-20T01:20:32.371Z,8.78
2019-06-20T01:23:03.021Z,11.00
2019-06-20T01:25:41.530Z,9.33
2019-06-20T01:28:11.926Z,8.30
2019-06-20T01:30:42.814Z,8.50
2019-06-20T01:33:14.628Z,9.13
2019-06-20T01:35:45.454Z,8.60
2019-06-20T01:38:15.968Z,7.67
2019-06-20T01:40:46.952Z,8.45
2019-06-20T01:43:17.362Z,9.68
2019-06-20T01:45:50.019Z,7.10
2019-06-20T01:48:20.430Z,9.75
2019-06-20T01:50:50.813Z,8.75
2019-06-20T01:53:23.611Z,9.43
2019-06-20T01:55:54.016Z,7.70
2019-06-20T01:58:25.072Z,8.95
2019-06-20T02:00:55.834Z,7.80
2019-06-20T02:03:26.231Z,7.40
2019-06-20T02:05:56.733Z,9.10
2019-06-20T02:08:27.133Z,7.97
2019-06-20T02:10:57.549Z,8.08
2019-06-20T02:13:28.661Z,9.88
2019-06-20T02:15:59.038Z,8.40
2019-06-20T02:18:29.415Z,9.25
2019-06-20T02:21:00.571Z,9.03
2019-06-20T02:23:30.911Z,7.60
2019-06-20T02:26:01.664Z,10.28
2019-06-20T02:28:32.445Z,9.85
2019-06-20T02:31:02.747Z,10.93
2019-06-20T02:33:33.085Z,12.00
2019-06-20T02:36:03.443Z,10.80
2019-06-20T02:38:33.770Z,10.08
2019-06-20T02:41:04.098Z,11.65
2019-06-20T02:43:34.621Z,9.10
2019-06-20T02:46:05.257Z,14.98
2019-06-20T02:48:35.664Z,13.65
2019-06-20T02:51:06.364Z,10.68
2019-06-20T02:53:37.742Z,11.12
2019-06-20T02:56:08.014Z,16.07
2019-06-20T02:58:38.643Z,12.07
2019-06-20T03:01:09.109Z,9.80
2019-06-20T03:03:39.477Z,9.45
2019-06-20T03:06:11.037Z,12.90
2019-06-20T03:08:41.735Z,10.05
2019-06-20T03:11:12.549Z,9.05
2019-06-20T03:13:42.947Z,11.73
2019-06-20T03:16:13.361Z,10.72
2019-06-20T03:18:45.838Z,10.13
2019-06-20T03:21:16.232Z,9.28
2019-06-20T03:23:46.683Z,10.53
2019-06-20T03:26:17.147Z,11.53
2019-06-20T03:28:48.166Z,8.98
2019-06-20T03:31:18.657Z,12.30
2019-06-20T03:33:50.302Z,9.90
2019-06-20T03:36:21.636Z,9.00
2019-06-20T03:38:51.997Z,9.93
2019-06-20T03:41:22.389Z,9.03
2019-06-20T03:43:52.801Z,11.08
2019-06-20T03:46:23.783Z,10.23
2019-06-20T03:48:54.186Z,7.92
2019-06-20T03:51:25.580Z,8.80
2019-06-20T03:53:55.974Z,8.55
2019-06-20T03:56:28.535Z,10.30
2019-06-20T03:58:58.962Z,8.03
2019-06-20T04:01:29.568Z,8.53
2019-06-20T04:04:00.401Z,9.25
2019-06-20T04:06:31.338Z,10.70
2019-06-20T04:09:02.076Z,6.08
2019-06-20T04:11:32.841Z,6.72
2019-06-20T04:14:03.350Z,7.45
2019-06-20T04:16:33.732Z,7.87
2019-06-20T04:19:04.210Z,7.37
2019-06-20T04:21:34.745Z,7.00
2019-06-20T04:24:05.223Z,7.12
2019-06-20T04:26:35.983Z,6.70
2019-06-20T04:29:07.647Z,6.42
2019-06-20T04:31:39.694Z,9.10
2019-06-20T04:34:10.346Z,6.05
2019-06-20T04:36:41.282Z,6.05
2019-06-20T04:39:19.174Z,5.78
2019-06-20T04:41:46.165Z,7.83
2019-06-20T04:44:16.658Z,5.83
2019-06-20T04:46:56.792Z,6.85
2019-06-20T04:49:27.555Z,5.53
2019-06-20T04:51:58.181Z,6.97
2019-06-20T04:54:28.920Z,7.25
2019-06-20T04:57:02.304Z,7.97
2019-06-20T04:59:32.621Z,7.47
2019-06-20T05:02:03.262Z,5.75
2019-06-20T05:04:34.161Z,8.03
2019-06-20T05:07:11.557Z,8.75
2019-06-20T05:09:42.010Z,7.25
2019-06-20T05:12:12.665Z,8.28
2019-06-20T05:14:43.097Z,7.70
2019-06-20T05:17:13.742Z,7.72
2019-06-20T05:19:44.134Z,5.62
2019-06-20T05:22:14.547Z,8.65
2019-06-20T05:24:45.968Z,7.10
2019-06-20T05:27:16.656Z,7.55
2019-06-20T05:29:47.544Z,6.22
2019-06-20T05:32:17.963Z,10.23
2019-06-20T05:34:48.813Z,7.47
2019-06-20T05:37:19.326Z,6.60
2019-06-20T05:39:49.636Z,6.28
2019-06-20T05:42:20.315Z,7.50
2019-06-20T05:44:51.532Z,7.97
2019-06-20T05:47:21.958Z,6.35
2019-06-20T05:49:52.370Z,9.95
2019-06-20T05:52:23.221Z,5.75
2019-06-20T05:54:53.539Z,7.75
2019-06-20T05:57:23.935Z,7.67
2019-06-20T05:59:54.773Z,6.40
2019-06-20T06:02:25.142Z,5.05
2019-06-20T06:04:55.538Z,6.12
2019-06-20T06:07:27.257Z,8.08
2019-06-20T06:09:57.729Z,5.78
2019-06-20T06:12:28.163Z,7.45
2019-06-20T06:15:00.975Z,6.45
2019-06-20T06:17:31.773Z,8.85
2019-06-20T06:20:02.353Z,8.88
2019-06-20T06:22:33.575Z,7.45
2019-06-20T06:25:04.901Z,7.47
2019-06-20T06:27:35.528Z,12.43
2019-06-20T06:30:07.248Z,10.58
2019-06-20T06:32:40.410Z,8.68
2019-06-20T06:35:11.506Z,12.18
2019-06-20T06:37:42.910Z,9.05
2019-06-20T06:40:14.497Z,4.40
2019-06-20T06:42:45.059Z,6.58
2019-06-20T06:45:17.103Z,5.40
2019-06-20T06:47:47.439Z,5.95
2019-06-20T06:50:19.011Z,7.47
2019-06-20T06:52:53.558Z,5.35
2019-06-20T06:55:27.348Z,6.45
2019-06-20T06:57:56.350Z,8.73
2019-06-20T07:00:28.410Z,7.50
2019-06-20T07:02:58.780Z,6.97
2019-06-20T07:05:29.276Z,5.80
2019-06-20T07:07:59.662Z,4.97
2019-06-20T07:10:31.325Z,8.30
2019-06-20T07:13:01.878Z,4.28
2019-06-20T07:15:32.584Z,5.85
2019-06-20T07:18:05.401Z,4.25
2019-06-20T07:20:38.220Z,8.78
2019-06-20T07:23:08.548Z,4.08
2019-06-20T07:25:40.106Z,5.78
2019-06-20T07:28:10.756Z,8.18
2019-06-20T07:30:41.227Z,3.25
2019-06-20T07:33:12.062Z,8.00
2019-06-20T07:35:42.510Z,3.85
2019-06-20T07:38:12.920Z,7.03
2019-06-20T07:40:43.268Z,4.85
2019-06-20T07:43:14.974Z,4.72
2019-06-20T07:46:01.588Z,6.80
2019-06-20T07:48:17.792Z,4.10
2019-06-20T07:50:48.573Z,7.40
2019-06-20T07:53:22.814Z,6.67
2019-06-20T07:55:53.350Z,6.83
2019-06-20T07:58:23.696Z,4.50
2019-06-20T08:00:54.604Z,12.03
2019-06-20T08:03:25.288Z,6.87
2019-06-20T08:05:55.652Z,4.95
2019-06-20T08:08:26.357Z,11.33
2019-06-20T08:10:56.726Z,6.58
2019-06-20T08:13:27.436Z,6.12
2019-06-20T08:15:57.983Z,6.53
2019-06-20T08:18:28.480Z,3.50
2019-06-20T08:20:59.309Z,5.20
2019-06-20T08:23:29.752Z,6.45
2019-06-20T08:26:00.525Z,5.35
2019-06-20T08:28:31.061Z,5.40
2019-06-20T08:31:02.546Z,6.20
2019-06-20T08:33:33.507Z,5.05
2019-06-20T08:36:04.584Z,6.75
2019-06-20T08:38:35.065Z,4.08
2019-06-20T08:41:06.599Z,8.18
2019-06-20T08:43:37.897Z,6.83
2019-06-20T08:46:10.385Z,5.05
2019-06-20T08:48:40.300Z,7.50
2019-06-20T08:51:14.350Z,2.50
2019-06-20T08:53:43.000Z,6.10
2019-06-20T08:56:13.604Z,5.35
2019-06-20T08:58:44.347Z,3.08
2019-06-20T09:01:14.725Z,3.83
2019-06-20T09:03:45.428Z,7.83
2019-06-20T09:06:15.818Z,3.85
2019-06-20T09:08:46.201Z,3.85
2019-06-20T09:11:16.595Z,4.97
2019-06-20T09:13:46.951Z,6.00
2019-06-20T09:16:24.522Z,4.65
2019-06-20T09:18:53.223Z,5.33
2019-06-20T09:21:23.002Z,3.20
2019-06-20T09:23:54.167Z,5.20
2019-06-20T09:26:24.675Z,5.65
2019-06-20T09:28:55.661Z,7.00
2019-06-20T09:31:26.131Z,5.37
2019-06-20T09:34:02.422Z,4.90
2019-06-20T09:36:31.794Z,4.75
2019-06-20T09:39:03.741Z,3.95
2019-06-20T09:41:34.523Z,6.47
2019-06-20T09:44:05.418Z,4.55
2019-06-20T09:46:36.534Z,3.70
2019-06-20T09:49:07.245Z,8.48
2019-06-20T09:51:38.875Z,4.83
2019-06-20T09:54:10.104Z,5.53
2019-06-20T09:56:47.014Z,8.53
2019-06-20T09:59:27.168Z,6.35
2019-06-20T10:01:50.057Z,8.85
2019-06-20T10:04:21.573Z,8.05
2019-06-20T10:06:52.367Z,9.53
2019-06-20T10:09:22.854Z,7.25
2019-06-20T10:11:54.100Z,6.42
2019-06-20T10:14:24.910Z,7.33
2019-06-20T10:16:58.316Z,8.08
2019-06-20T10:19:29.017Z,11.22
2019-06-20T10:22:01.692Z,9.63
2019-06-20T10:24:32.061Z,5.62
2019-06-20T10:27:03.901Z,9.88
2019-06-20T10:29:34.334Z,6.37
2019-06-20T10:32:05.576Z,5.97
2019-06-20T10:34:37.051Z,9.10
2019-06-20T10:37:07.452Z,8.50
2019-06-20T10:39:38.084Z,7.97
2019-06-20T10:42:08.772Z,11.05
2019-06-20T10:44:39.150Z,6.90
2019-06-20T10:47:10.662Z,8.23
2019-06-20T10:49:42.928Z,10.43
2019-06-20T10:52:14.571Z,8.10
2019-06-20T10:54:47.289Z,10.32
2019-06-20T10:57:17.638Z,5.80
2019-06-20T10:59:48.461Z,8.08
2019-06-20T11:02:19.735Z,4.75
2019-06-20T11:04:50.024Z,6.47
2019-06-20T11:07:21.340Z,12.20
2019-06-20T11:09:52.064Z,7.22
2019-06-20T11:12:22.416Z,3.98
2019-06-20T11:14:52.889Z,4.15
2019-06-20T11:17:23.597Z,8.90
2019-06-20T11:19:54.186Z,5.58
2019-06-20T11:22:24.551Z,7.70
2019-06-20T11:24:56.003Z,5.12
2019-06-20T11:27:26.567Z,4.87
2019-06-20T11:29:57.426Z,6.72
2019-06-20T11:32:27.913Z,9.43
2019-06-20T11:34:58.301Z,8.40
2019-06-20T11:37:28.735Z,6.33
2019-06-20T11:40:00.211Z,9.95
2019-06-20T11:42:30.645Z,3.67
2019-06-20T11:45:01.011Z,12.13
2019-06-20T11:47:31.517Z,7.25
2019-06-20T11:50:02.055Z,10.03
2019-06-20T11:52:38.134Z,7.08
2019-06-20T11:55:05.079Z,7.58
2019-06-20T11:57:37.478Z,5.72
2019-06-20T12:00:08.848Z,8.43
2019-06-20T12:02:42.775Z,13.08
2019-06-20T12:05:14.781Z,6.50
2019-06-20T12:07:45.713Z,7.25
2019-06-20T12:10:18.039Z,6.33
2019-06-20T12:12:49.525Z,10.25
2019-06-20T12:15:21.048Z,7.15
2019-06-20T12:17:51.594Z,11.03
2019-06-20T12:20:23.143Z,7.50
2019-06-20T12:22:53.559Z,6.92
2019-06-20T12:25:24.189Z,6.03
2019-06-20T12:27:54.660Z,6.30
2019-06-20T12:30:25.194Z,6.80
2019-06-20T12:32:55.664Z,9.88
2019-06-20T12:35:25.996Z,8.38
2019-06-20T12:37:56.528Z,11.80
2019-06-20T12:40:27.294Z,8.18
2019-06-20T12:42:57.729Z,7.78
2019-06-20T12:45:28.491Z,7.20
2019-06-20T12:47:59.025Z,16.25
2019-06-20T12:50:29.434Z,8.33
2019-06-20T12:52:59.949Z,10.60
2019-06-20T12:55:30.290Z,8.38
2019-06-20T12:58:00.775Z,8.05
2019-06-20T13:00:32.231Z,9.83
2019-06-20T13:03:03.170Z,11.03
2019-06-20T13:05:33.566Z,12.40
2019-06-20T13:08:04.634Z,19.62
2019-06-20T13:10:35.271Z,12.18
2019-06-20T13:13:05.743Z,16.42
2019-06-20T13:15:36.216Z,10.80
2019-06-20T13:18:06.815Z,12.78
2019-06-20T13:20:40.625Z,10.45
2019-06-20T13:23:12.572Z,14.98
2019-06-20T13:25:44.473Z,16.40
2019-06-20T13:28:15.414Z,15.03
2019-06-20T13:30:49.858Z,13.20
2019-06-20T13:33:18.332Z,16.70
2019-06-20T13:35:50.899Z,16.45
2019-06-20T13:38:21.304Z,19.05
2019-06-20T13:40:51.726Z,17.40
2019-06-20T13:43:24.611Z,15.45
2019-06-20T13:45:55.321Z,15.68
2019-06-20T13:48:25.727Z,14.05
2019-06-20T13:50:56.409Z,15.60
2019-06-20T13:53:26.939Z,20.15
2019-06-20T13:55:57.346Z,14.90
2019-06-20T13:58:27.896Z,16.90
2019-06-20T14:01:00.332Z,14.78
2019-06-20T14:03:31.329Z,15.40
2019-06-20T14:06:01.967Z,13.90
2019-06-20T14:08:32.502Z,14.30
2019-06-20T14:11:03.025Z,15.98
2019-06-20T14:13:33.491Z,16.12
2019-06-20T14:16:04.145Z,17.90
2019-06-20T14:18:34.995Z,20.85
2019-06-20T14:21:05.792Z,17.98
2019-06-20T14:23:36.634Z,24.37
2019-06-20T14:26:07.359Z,17.95
2019-06-20T14:28:37.838Z,18.12
2019-06-20T14:31:08.580Z,18.52
2019-06-20T14:33:42.472Z,20.30
2019-06-20T14:36:11.335Z,17.60
2019-06-20T14:38:43.895Z,19.27
2019-06-20T14:41:14.546Z,15.90
2019-06-20T14:43:46.154Z,21.02
2019-06-20T14:46:17.277Z,16.93
2019-06-20T14:48:56.805Z,21.23
2019-06-20T14:51:30.199Z,19.37
2019-06-20T14:54:03.650Z,20.90
2019-06-20T14:56:44.514Z,16.32
2019-06-20T14:59:14.343Z,21.77
2019-06-20T15:01:55.506Z,19.57
2019-06-20T15:04:26.419Z,25.25
2019-06-20T15:06:56.893Z,20.50
2019-06-20T15:09:27.277Z,18.95
2019-06-20T15:11:57.729Z,18.32
2019-06-20T15:14:28.147Z,17.65
2019-06-20T15:16:58.757Z,23.80
2019-06-20T15:19:29.279Z,18.57
2019-06-20T15:22:01.346Z,18.73
2019-06-20T15:24:31.948Z,18.15
2019-06-20T15:27:02.311Z,23.30
2019-06-20T15:29:32.577Z,23.20
2019-06-20T15:32:02.954Z,20.52
2019-06-20T15:34:36.825Z,19.65
2019-06-20T15:37:07.958Z,17.35
2019-06-20T15:39:38.891Z,19.77
2019-06-20T15:42:09.374Z,18.70
2019-06-20T15:44:39.944Z,18.70
2019-06-20T15:47:10.367Z,17.87
2019-06-20T15:49:42.166Z,22.20
2019-06-20T15:52:15.303Z,21.02
2019-06-20T15:54:49.742Z,17.10
2019-06-20T15:57:27.844Z,18.52
2019-06-20T15:59:58.534Z,16.67
2019-06-20T16:02:29.347Z,19.12
2019-06-20T16:04:59.746Z,17.17
2019-06-20T16:07:33.134Z,16.67
2019-06-20T16:10:04.998Z,16.05
2019-06-20T16:12:35.499Z,17.67
2019-06-20T16:15:07.033Z,16.57
2019-06-20T16:17:37.813Z,22.42
2019-06-20T16:20:09.920Z,19.23
2019-06-20T16:22:40.438Z,15.98
2019-06-20T16:25:11.155Z,18.87
2019-06-20T16:27:41.475Z,15.08
2019-06-20T16:30:14.038Z,15.88
2019-06-20T16:32:50.065Z,13.72
2019-06-20T16:35:28.853Z,17.50
2019-06-20T16:37:59.162Z,17.57
2019-06-20T16:40:48.843Z,17.27
2019-06-20T16:43:19.308Z,12.85
2019-06-20T16:45:49.895Z,16.35
2019-06-20T16:48:20.595Z,16.77
2019-06-20T16:50:50.991Z,15.72
2019-06-20T16:53:23.441Z,11.95
2019-06-20T16:55:54.768Z,15.23
2019-06-20T16:58:25.133Z,14.98
2019-06-20T17:00:55.877Z,10.60
2019-06-20T17:09:44.422Z,16.95
2019-06-20T17:12:15.007Z,14.58
2019-06-20T17:14:45.424Z,12.05
2019-06-20T17:17:15.942Z,12.35
2019-06-20T17:19:46.765Z,12.30
2019-06-20T17:22:17.521Z,11.12
2019-06-20T17:24:47.883Z,8.48
2019-06-20T17:27:18.261Z,14.60
2019-06-20T17:29:48.584Z,10.65
2019-06-20T17:32:19.002Z,8.13
2019-06-20T17:34:50.293Z,9.55
2019-06-20T17:37:21.052Z,9.90
2019-06-20T17:39:51.427Z,9.88
2019-06-20T17:42:22.228Z,8.30
2019-06-20T17:44:53.935Z,8.53
2019-06-20T17:47:24.753Z,8.80
2019-06-20T17:49:55.044Z,7.55
2019-06-20T17:52:25.748Z,9.58
2019-06-20T17:54:56.913Z,11.97
2019-06-20T17:57:27.557Z,10.55
2019-06-20T17:59:58.123Z,10.43
2019-06-20T18:02:28.523Z,8.58
2019-06-20T18:04:59.231Z,9.90
2019-06-20T18:07:30.672Z,14.55
2019-06-20T18:10:01.049Z,11.68
2019-06-20T18:12:31.461Z,12.30
2019-06-20T18:15:02.927Z,10.63
2019-06-20T18:17:33.337Z,13.90
2019-06-20T18:20:03.650Z,11.85
2019-06-20T18:22:33.940Z,11.12
2019-06-20T18:25:07.151Z,13.45
2019-06-20T18:27:37.463Z,13.48
2019-06-20T18:30:08.569Z,13.88
2019-06-20T18:32:39.217Z,12.98
2019-06-20T18:35:10.224Z,13.20
2019-06-20T18:37:40.968Z,11.50
2019-06-20T18:40:14.822Z,12.68
2019-06-20T18:42:47.990Z,11.95
2019-06-20T18:45:18.678Z,13.93
2019-06-20T18:47:49.067Z,11.60
2019-06-20T18:50:19.885Z,13.00
2019-06-20T18:52:52.551Z,11.93
2019-06-20T18:55:22.688Z,14.58
2019-06-20T18:57:53.060Z,12.55
2019-06-20T19:00:34.129Z,12.60
2019-06-20T19:02:55.985Z,11.22
2019-06-20T19:05:26.788Z,13.22
2019-06-20T19:07:57.125Z,11.78
2019-06-20T19:10:28.184Z,12.78
2019-06-20T19:12:58.870Z,11.15
2019-06-20T19:15:30.783Z,12.70
2019-06-20T19:18:01.141Z,10.53
2019-06-20T19:20:31.801Z,10.10
2019-06-20T19:23:02.518Z,11.45
2019-06-20T19:25:32.989Z,10.58
2019-06-20T19:28:05.019Z,8.55
2019-06-20T19:30:43.817Z,8.93
2019-06-20T19:33:14.101Z,9.40
2019-06-20T19:35:44.435Z,14.23
2019-06-20T19:38:15.326Z,10.82
2019-06-20T19:40:47.379Z,9.25
2019-06-20T19:43:18.142Z,10.30
2019-06-20T19:45:49.139Z,10.45
2019-06-20T19:48:19.725Z,9.40
2019-06-20T19:50:50.060Z,11.93
2019-06-20T19:53:20.576Z,11.78
2019-06-20T19:55:50.956Z,8.65
2019-06-20T19:58:21.620Z,11.05
2019-06-20T20:00:52.102Z,11.05
2019-06-20T20:03:23.519Z,11.20
2019-06-20T20:05:53.934Z,15.48
2019-06-20T20:08:24.349Z,9.83
2019-06-20T20:10:54.994Z,11.00
2019-06-20T20:13:27.331Z,12.98
2019-06-20T20:15:57.670Z,14.93
2019-06-20T20:18:28.230Z,12.25
2019-06-20T20:20:58.577Z,11.22
2019-06-20T20:23:29.003Z,12.25
2019-06-20T20:25:59.375Z,14.98
2019-06-20T20:28:29.715Z,12.85
2019-06-20T20:31:00.073Z,14.68
2019-06-20T20:33:30.511Z,11.10
2019-06-20T20:36:02.063Z,15.38
2019-06-20T20:38:32.913Z,13.48
2019-06-20T20:41:03.355Z,14.33
2019-06-20T20:43:33.691Z,12.50
2019-06-20T20:46:04.104Z,13.05
2019-06-20T20:48:34.477Z,15.13
2019-06-20T20:51:04.934Z,16.30
2019-06-20T20:53:35.312Z,14.53
2019-06-20T20:56:05.688Z,15.83
2019-06-20T20:58:36.080Z,14.50
2019-06-20T21:01:18.748Z,13.48
2019-06-20T21:03:49.069Z,12.50
2019-06-20T21:06:23.208Z,17.40
2019-06-20T21:08:52.305Z,16.20
2019-06-20T21:11:22.380Z,12.98
2019-06-20T21:13:53.083Z,13.85
2019-06-20T21:16:23.496Z,16.50
2019-06-20T21:18:53.845Z,16.52
2019-06-20T21:21:24.219Z,15.58
2019-06-20T21:23:56.110Z,13.68
2019-06-20T21:26:26.427Z,15.90
2019-06-20T21:28:57.605Z,18.73
2019-06-20T21:31:27.945Z,15.95
2019-06-20T21:33:58.273Z,16.73
2019-06-20T21:36:29.172Z,16.40
2019-06-20T21:38:59.490Z,19.50
2019-06-20T21:41:29.803Z,25.75
2019-06-20T21:44:00.710Z,18.17
2019-06-20T21:46:33.051Z,18.35
2019-06-20T21:49:04.056Z,17.23
2019-06-20T21:51:35.124Z,19.23
2019-06-20T21:54:07.690Z,17.40
2019-06-20T21:56:38.024Z,21.12
2019-06-20T21:59:08.467Z,20.10
2019-06-20T22:01:39.572Z,24.47
2019-06-20T22:04:10.533Z,17.30
2019-06-20T22:06:42.730Z,19.17
2019-06-20T22:09:13.179Z,21.40
2019-06-20T22:11:43.936Z,17.62
2019-06-20T22:14:14.509Z,19.62
2019-06-20T22:16:45.507Z,21.33
2019-06-20T22:19:15.799Z,23.87
2019-06-20T22:21:46.711Z,17.27
2019-06-20T22:24:17.199Z,18.85
2019-06-20T22:26:48.015Z,22.98
2019-06-20T22:29:18.178Z,23.62
2019-06-20T22:31:48.580Z,25.45
2019-06-20T22:34:19.679Z,26.73
2019-06-20T22:36:50.047Z,22.82
2019-06-20T22:39:20.400Z,22.55
2019-06-20T22:41:50.715Z,21.90
2019-06-20T22:44:21.463Z,20.00
2019-06-20T22:46:51.798Z,27.42
2019-06-20T22:49:22.787Z,26.77
2019-06-20T22:51:53.493Z,26.48
2019-06-20T22:54:23.912Z,27.98
2019-06-20T22:56:54.267Z,24.10
2019-06-20T22:59:24.690Z,23.47
2019-06-20T23:01:55.049Z,25.48
2019-06-20T23:04:27.681Z,25.02
2019-06-20T23:06:58.017Z,27.55
2019-06-20T23:09:29.213Z,27.05
2019-06-20T23:11:59.644Z,28.73
2019-06-20T23:14:30.004Z,26.95
2019-06-20T23:17:00.702Z,32.23
2019-06-20T23:19:31.120Z,27.87
2019-06-20T23:22:01.435Z,31.48
2019-06-20T23:24:32.292Z,25.77
2019-06-20T23:27:02.703Z,30.52
2019-06-20T23:29:33.407Z,28.27
2019-06-20T23:32:03.991Z,28.83
2019-06-20T23:34:37.457Z,31.57
2019-06-20T23:37:12.664Z,29.85
2019-06-20T23:39:39.798Z,29.30
2019-06-20T23:42:10.164Z,27.37
2019-06-20T23:44:40.451Z,27.07
2019-06-20T23:47:11.641Z,24.45
2019-06-20T23:49:41.969Z,23.42
2019-06-20T23:52:16.833Z,25.37
2019-06-20T23:54:48.169Z,29.52
2019-06-20T23:57:21.983Z,26.55
2019-06-20T23:59:52.310Z,28.32
